Time;durP1;ratioP1;P1;durP2;ratioP2;P2;SDS_P1;SDS_P2;PMS_P1;PMS_P2;Temp;Humidity;BMP_temperature;BMP_pressure;BME280_temperature;BME280_humidity;BME280_pressure;Samples;Min_cycle;Max_cycle;Signal;HPM_P1;HPM_P2
2022/05/22 00:01:53;;;;;;;3.00;1.93;;;;;;;;;;5013467;28;20257;-67
2022/05/22 00:04:21;;;;;;;2.17;1.80;;;;;;;;;;5013865;28;20211;-67
2022/05/22 00:06:48;;;;;;;2.13;1.93;;;;;;;;;;5011782;28;20210;-67
2022/05/22 00:09:16;;;;;;;38.87;22.40;;;;;;;;;;5009554;28;20294;-66
2022/05/22 00:11:43;;;;;;;41.83;23.87;;;;;;;;;;5012217;28;20664;-67
2022/05/22 00:14:14;;;;;;;7.13;5.57;;;;;;;;;;5009749;28;20235;-67
2022/05/22 00:16:41;;;;;;;8.20;3.33;;;;;;;;;;5009176;28;20241;-67
2022/05/22 00:19:10;;;;;;;5.50;2.60;;;;;;;;;;5006593;28;20227;-67
2022/05/22 00:21:38;;;;;;;2.83;2.53;;;;;;;;;;5009577;28;20207;-68
2022/05/22 00:24:06;;;;;;;2.40;2.20;;;;;;;;;;5012913;28;20210;-68
2022/05/22 00:26:34;;;;;;;2.60;2.10;;;;;;;;;;5011699;28;20612;-67
2022/05/22 00:29:01;;;;;;;2.80;2.03;;;;;;;;;;5004611;28;20234;-67
2022/05/22 00:31:28;;;;;;;4.57;3.00;;;;;;;;;;5016376;28;20707;-67
2022/05/22 00:33:56;;;;;;;4.33;2.63;;;;;;;;;;5013846;28;20239;-67
2022/05/22 00:36:23;;;;;;;2.63;2.43;;;;;;;;;;5015988;28;20202;-67
2022/05/22 00:38:50;;;;;;;2.13;1.93;;;;;;;;;;5012334;28;20199;-67
2022/05/22 00:41:18;;;;;;;2.70;2.23;;;;;;;;;;5009932;28;20203;-67
2022/05/22 00:43:48;;;;;;;2.77;2.50;;;;;;;;;;5012886;28;20261;-67
2022/05/22 00:46:16;;;;;;;3.67;2.33;;;;;;;;;;5013471;28;20285;-67
2022/05/22 00:48:47;;;;;;;2.90;2.30;;;;;;;;;;5010738;28;20222;-67
2022/05/22 00:51:17;;;;;;;2.13;2.00;;;;;;;;;;5013048;28;21010;-67
2022/05/22 00:53:50;;;;;;;3.83;2.07;;;;;;;;;;4994233;28;20223;-67
2022/05/22 00:56:19;;;;;;;4.63;2.50;;;;;;;;;;4993818;28;20732;-67
2022/05/22 00:58:47;;;;;;;5.43;3.93;;;;;;;;;;5011895;28;20210;-67
2022/05/22 01:01:14;;;;;;;3.70;2.67;;;;;;;;;;5013181;28;20203;-68
2022/05/22 01:03:41;;;;;;;8.90;5.80;;;;;;;;;;5012530;28;20207;-67
2022/05/22 01:06:13;;;;;;;8.53;4.70;;;;;;;;;;5009217;28;20618;-67
2022/05/22 01:08:42;;;;;;;7.57;4.90;;;;;;;;;;5010393;28;20215;-66
2022/05/22 01:11:14;;;;;;;11.77;6.63;;;;;;;;;;5012633;28;20199;-67
2022/05/22 01:13:44;;;;;;;5.93;3.87;;;;;;;;;;5012338;28;20530;-67
2022/05/22 01:16:11;;;;;;;5.07;3.43;;;;;;;;;;5008864;28;20616;-65
2022/05/22 01:18:42;;;;;;;4.33;3.20;;;;;;;;;;5012642;28;20206;-67
2022/05/22 01:21:18;;;;;;;4.03;3.50;;;;;;;;;;5010156;28;20203;-65
2022/05/22 01:23:45;;;;;;;5.23;3.33;;;;;;;;;;5030740;28;20611;-66
2022/05/22 01:26:13;;;;;;;3.47;2.53;;;;;;;;;;5011345;28;20836;-67
2022/05/22 01:28:41;;;;;;;3.10;2.37;;;;;;;;;;5011754;28;20207;-67
2022/05/22 01:31:08;;;;;;;2.57;2.37;;;;;;;;;;5012982;28;20695;-67
2022/05/22 01:33:37;;;;;;;2.33;2.13;;;;;;;;;;5014314;28;20283;-67
2022/05/22 01:36:05;;;;;;;6.57;4.10;;;;;;;;;;5007220;28;20200;-66
2022/05/22 01:38:32;;;;;;;2.70;2.50;;;;;;;;;;5014106;28;20199;-67
2022/05/22 01:41:00;;;;;;;2.80;2.60;;;;;;;;;;5014775;28;20286;-67
2022/05/22 01:43:27;;;;;;;2.60;2.40;;;;;;;;;;5016470;28;20281;-67
2022/05/22 01:45:55;;;;;;;2.43;2.23;;;;;;;;;;5013056;28;20204;-67
2022/05/22 01:48:23;;;;;;;3.87;2.20;;;;;;;;;;5017064;28;20617;-67
2022/05/22 01:50:50;;;;;;;3.07;2.47;;;;;;;;;;5015440;28;20258;-67
2022/05/22 01:53:19;;;;;;;2.60;2.10;;;;;;;;;;5012460;28;20215;-67
2022/05/22 01:55:47;;;;;;;2.00;1.87;;;;;;;;;;4996695;28;20514;-67
2022/05/22 01:58:14;;;;;;;3.40;2.20;;;;;;;;;;4996180;28;20517;-67
2022/05/22 02:00:42;;;;;;;2.33;2.13;;;;;;;;;;5006643;28;20218;-67
2022/05/22 02:03:09;;;;;;;3.63;2.33;;;;;;;;;;5012855;28;20208;-67
2022/05/22 02:05:36;;;;;;;2.77;2.00;;;;;;;;;;5015678;28;20214;-67
2022/05/22 02:08:19;;;;;;;2.63;2.30;;;;;;;;;;5029771;28;20211;-67
2022/05/22 02:10:48;;;;;;;2.43;2.10;;;;;;;;;;5009916;28;20266;-67
2022/05/22 02:13:20;;;;;;;3.23;1.83;;;;;;;;;;5009473;28;20274;-65
2022/05/22 02:15:49;;;;;;;2.10;1.90;;;;;;;;;;5011799;28;20206;-67
2022/05/22 02:18:17;;;;;;;2.13;1.83;;;;;;;;;;5010032;28;20302;-67
2022/05/22 02:20:44;;;;;;;4.03;2.60;;;;;;;;;;5015624;28;20215;-67
2022/05/22 02:23:11;;;;;;;2.83;2.20;;;;;;;;;;5015778;28;20238;-66
2022/05/22 02:25:42;;;;;;;2.27;2.07;;;;;;;;;;5014350;28;20206;-67
2022/05/22 02:28:11;;;;;;;2.30;2.10;;;;;;;;;;5033028;28;20206;-66
2022/05/22 02:30:40;;;;;;;1.90;1.80;;;;;;;;;;5005132;28;20231;-66
2022/05/22 02:33:07;;;;;;;3.23;1.80;;;;;;;;;;5032834;28;20211;-67
2022/05/22 02:35:35;;;;;;;3.07;2.03;;;;;;;;;;4997001;28;20211;-66
2022/05/22 02:38:03;;;;;;;3.60;2.20;;;;;;;;;;5008957;28;20270;-67
2022/05/22 02:40:31;;;;;;;2.20;2.00;;;;;;;;;;5011535;28;20282;-65
2022/05/22 02:42:59;;;;;;;2.47;2.27;;;;;;;;;;5013695;28;20632;-67
2022/05/22 02:45:28;;;;;;;2.47;2.27;;;;;;;;;;5011643;28;20522;-66
2022/05/22 02:47:56;;;;;;;3.60;2.73;;;;;;;;;;5012973;28;20208;-65
2022/05/22 02:50:24;;;;;;;2.40;2.20;;;;;;;;;;5012833;28;20220;-66
2022/05/22 02:52:52;;;;;;;2.00;1.70;;;;;;;;;;5013431;28;20195;-66
2022/05/22 02:55:20;;;;;;;3.60;2.20;;;;;;;;;;5010116;28;20246;-65
2022/05/22 02:57:47;;;;;;;2.77;2.17;;;;;;;;;;5009647;28;20250;-65
2022/05/22 03:00:26;;;;;;;2.37;2.10;;;;;;;;;;5013044;28;20251;-66
2022/05/22 03:02:54;;;;;;;2.73;2.30;;;;;;;;;;5014199;28;20230;-65
2022/05/22 03:05:26;;;;;;;7.50;4.27;;;;;;;;;;5011491;28;20204;-66
2022/05/22 03:07:54;;;;;;;5.30;3.50;;;;;;;;;;5011738;28;20214;-66
2022/05/22 03:10:24;;;;;;;3.80;2.70;;;;;;;;;;5011213;28;20282;-67
2022/05/22 03:12:52;;;;;;;4.20;2.20;;;;;;;;;;5010730;28;20226;-66
2022/05/22 03:15:19;;;;;;;4.23;2.90;;;;;;;;;;5010298;28;20224;-65
2022/05/22 03:17:47;;;;;;;3.53;2.20;;;;;;;;;;5010838;28;20223;-66
2022/05/22 03:20:15;;;;;;;2.63;2.20;;;;;;;;;;5004924;28;20223;-66
2022/05/22 03:22:42;;;;;;;2.80;2.00;;;;;;;;;;5013235;28;20191;-66
2022/05/22 03:25:10;;;;;;;2.27;2.00;;;;;;;;;;5013741;28;20233;-66
2022/05/22 03:27:40;;;;;;;3.30;2.30;;;;;;;;;;5014906;28;20638;-66
2022/05/22 03:30:08;;;;;;;3.27;2.20;;;;;;;;;;5011011;28;20239;-66
2022/05/22 03:32:35;;;;;;;2.83;2.30;;;;;;;;;;4994827;28;20454;-66
2022/05/22 03:35:03;;;;;;;2.87;2.30;;;;;;;;;;4995798;28;20227;-66
2022/05/22 03:37:30;;;;;;;3.77;3.40;;;;;;;;;;5013548;28;20284;-66
2022/05/22 03:39:58;;;;;;;5.90;3.17;;;;;;;;;;5013787;28;20227;-66
2022/05/22 03:42:26;;;;;;;4.40;2.80;;;;;;;;;;5010774;28;20202;-66
2022/05/22 03:44:53;;;;;;;2.53;2.20;;;;;;;;;;5010484;28;20391;-66
2022/05/22 03:47:20;;;;;;;4.00;2.80;;;;;;;;;;5013770;28;20450;-66
2022/05/22 03:49:47;;;;;;;3.50;2.70;;;;;;;;;;5010834;28;20231;-66
2022/05/22 03:52:15;;;;;;;3.40;2.73;;;;;;;;;;5014151;28;20211;-66
2022/05/22 03:54:42;;;;;;;2.93;2.53;;;;;;;;;;5010905;28;20226;-66
2022/05/22 03:57:10;;;;;;;5.87;2.77;;;;;;;;;;5013827;28;20203;-65
2022/05/22 03:59:41;;;;;;;3.60;2.70;;;;;;;;;;5012387;28;20231;-66
2022/05/22 04:02:08;;;;;;;3.20;2.60;;;;;;;;;;5012306;28;20578;-64
2022/05/22 04:04:36;;;;;;;2.77;2.57;;;;;;;;;;5015161;28;20443;-66
2022/05/22 04:07:03;;;;;;;3.63;3.33;;;;;;;;;;5031121;28;20268;-66
2022/05/22 04:09:31;;;;;;;2.93;2.70;;;;;;;;;;5011423;28;20592;-66
2022/05/22 04:11:58;;;;;;;4.43;3.20;;;;;;;;;;5010128;28;20246;-64
2022/05/22 04:14:26;;;;;;;3.87;3.43;;;;;;;;;;5012967;28;20310;-66
2022/05/22 04:16:53;;;;;;;3.67;3.30;;;;;;;;;;5010826;28;20214;-67
2022/05/22 04:19:21;;;;;;;3.67;3.33;;;;;;;;;;5013300;28;20219;-66
2022/05/22 04:21:48;;;;;;;5.27;3.50;;;;;;;;;;5009151;28;20265;-66
2022/05/22 04:27:07;;;;;;;5.30;3.93;;;;;;;;;;5018925;28;20209;-66
2022/05/22 04:29:36;;;;;;;5.03;3.53;;;;;;;;;;5012553;28;20281;-66
2022/05/22 04:32:04;;;;;;;5.63;3.40;;;;;;;;;;5030665;28;20242;-66
2022/05/22 04:34:32;;;;;;;3.93;3.10;;;;;;;;;;5010647;28;20638;-66
2022/05/22 04:36:59;;;;;;;5.13;2.60;;;;;;;;;;5012194;28;20203;-66
2022/05/22 04:39:27;;;;;;;4.37;2.77;;;;;;;;;;5009776;28;20227;-66
2022/05/22 04:41:54;;;;;;;3.67;2.77;;;;;;;;;;5012867;28;20202;-66
2022/05/22 04:44:21;;;;;;;5.03;2.50;;;;;;;;;;5013126;28;20207;-65
2022/05/22 04:46:49;;;;;;;4.20;2.70;;;;;;;;;;5013092;28;20643;-66
2022/05/22 04:49:16;;;;;;;3.20;2.60;;;;;;;;;;5030509;28;20222;-66
2022/05/22 04:51:44;;;;;;;4.67;2.70;;;;;;;;;;5012827;28;20301;-67
2022/05/22 04:54:11;;;;;;;3.93;2.90;;;;;;;;;;5013132;28;20230;-66
2022/05/22 04:56:39;;;;;;;4.60;3.00;;;;;;;;;;5013706;28;20202;-67
2022/05/22 04:59:06;;;;;;;3.00;2.77;;;;;;;;;;5013350;28;20229;-67
2022/05/22 05:01:34;;;;;;;5.47;3.60;;;;;;;;;;5013807;28;20206;-67
2022/05/22 05:04:01;;;;;;;3.70;2.67;;;;;;;;;;5013056;28;20202;-66
2022/05/22 05:06:30;;;;;;;3.37;3.00;;;;;;;;;;5011811;28;20252;-66
2022/05/22 05:08:57;;;;;;;5.83;3.17;;;;;;;;;;5005602;28;20238;-67
2022/05/22 05:11:25;;;;;;;4.97;3.50;;;;;;;;;;5012989;28;20209;-66
2022/05/22 05:13:52;;;;;;;5.40;3.40;;;;;;;;;;5013053;28;20207;-67
2022/05/22 05:16:21;;;;;;;5.70;3.20;;;;;;;;;;5003107;28;20258;-67
2022/05/22 05:18:48;;;;;;;4.30;3.23;;;;;;;;;;5008137;28;20206;-66
2022/05/22 05:21:17;;;;;;;9.33;2.93;;;;;;;;;;5013038;28;20266;-67
2022/05/22 05:23:45;;;;;;;4.73;2.93;;;;;;;;;;5006608;28;20262;-66
2022/05/22 05:26:13;;;;;;;2.73;2.30;;;;;;;;;;5012790;28;20690;-67
2022/05/22 05:28:40;;;;;;;3.07;1.90;;;;;;;;;;5011332;28;20291;-65
2022/05/22 05:31:07;;;;;;;2.03;1.80;;;;;;;;;;5012672;28;20207;-67
2022/05/22 05:33:36;;;;;;;3.05;1.92;;;;;;;;;;5030298;28;20427;-67
2022/05/22 05:36:04;;;;;;;2.25;1.77;;;;;;;;;;5011924;28;20314;-67
2022/05/22 05:38:32;;;;;;;2.53;1.60;;;;;;;;;;5009923;28;20242;-68
2022/05/22 05:41:20;;;;;;;1.98;1.45;;;;;;;;;;5002058;28;20259;-68
2022/05/22 05:43:47;;;;;;;1.50;1.40;;;;;;;;;;5029980;28;20210;-67
2022/05/22 05:46:15;;;;;;;2.53;1.50;;;;;;;;;;5025475;28;20204;-65
2022/05/22 05:48:42;;;;;;;2.45;1.45;;;;;;;;;;5011043;28;20202;-68
2022/05/22 05:51:12;;;;;;;2.38;1.30;;;;;;;;;;5012618;28;20257;-67
2022/05/22 05:53:39;;;;;;;2.63;1.40;;;;;;;;;;5009502;28;20230;-66
2022/05/22 05:56:07;;;;;;;2.38;1.40;;;;;;;;;;5029742;28;20219;-68
2022/05/22 05:58:51;;;;;;;2.10;1.33;;;;;;;;;;5002234;28;20575;-66
2022/05/22 06:01:19;;;;;;;1.50;1.40;;;;;;;;;;5003775;28;20220;-67
2022/05/22 06:03:47;;;;;;;2.55;1.50;;;;;;;;;;5009933;28;20199;-66
2022/05/22 06:06:14;;;;;;;1.70;1.30;;;;;;;;;;5010964;28;20203;-66
2022/05/22 06:08:42;;;;;;;2.38;1.50;;;;;;;;;;5010831;28;20194;-68
2022/05/22 06:11:09;;;;;;;1.67;1.55;;;;;;;;;;5013973;28;20260;-67
2022/05/22 06:13:37;;;;;;;4.13;1.67;;;;;;;;;;5012429;28;20575;-67
2022/05/22 06:16:05;;;;;;;1.83;1.65;;;;;;;;;;5011957;28;20289;-67
2022/05/22 06:18:33;;;;;;;1.77;1.50;;;;;;;;;;5033039;28;20210;-67
2022/05/22 06:21:07;;;;;;;2.45;1.60;;;;;;;;;;5015892;28;20667;-67
2022/05/22 06:23:34;;;;;;;3.42;1.60;;;;;;;;;;5015166;28;20203;-66
2022/05/22 06:26:02;;;;;;;2.00;1.70;;;;;;;;;;5012495;28;20266;-65
2022/05/22 06:28:29;;;;;;;5.53;2.08;;;;;;;;;;4996395;28;20218;-67
2022/05/22 06:30:57;;;;;;;2.83;2.05;;;;;;;;;;5015150;28;20238;-66
2022/05/22 06:33:24;;;;;;;2.42;2.20;;;;;;;;;;5012140;28;20223;-67
2022/05/22 06:35:52;;;;;;;2.13;1.90;;;;;;;;;;5013443;28;20220;-66
2022/05/22 06:41:06;;;;;;;2.17;2.00;;;;;;;;;;5014083;28;20199;-67
2022/05/22 06:43:34;;;;;;;2.45;2.10;;;;;;;;;;5011875;28;20250;-66
2022/05/22 06:46:02;;;;;;;3.10;1.90;;;;;;;;;;5015125;28;20291;-65
2022/05/22 06:48:30;;;;;;;2.67;2.00;;;;;;;;;;5011165;28;20218;-65
2022/05/22 06:50:57;;;;;;;3.00;1.80;;;;;;;;;;5014012;28;20371;-66
2022/05/22 06:53:25;;;;;;;2.88;1.65;;;;;;;;;;5011563;28;20588;-66
2022/05/22 06:55:52;;;;;;;2.22;1.83;;;;;;;;;;5014376;28;20269;-66
2022/05/22 06:58:20;;;;;;;2.85;1.90;;;;;;;;;;5015255;28;20616;-66
2022/05/22 07:00:51;;;;;;;2.78;1.85;;;;;;;;;;5015076;28;20245;-66
2022/05/22 07:03:19;;;;;;;1.90;1.60;;;;;;;;;;5008142;28;20199;-67
2022/05/22 07:05:47;;;;;;;3.47;1.80;;;;;;;;;;4999238;28;20206;-67
2022/05/22 07:08:15;;;;;;;1.80;1.38;;;;;;;;;;5014659;28;20230;-66
2022/05/22 07:13:28;;;;;;;2.78;1.50;;;;;;;;;;5031999;28;20210;-66
2022/05/22 07:16:02;;;;;;;2.72;1.60;;;;;;;;;;5013212;28;20298;-66
2022/05/22 07:18:50;;;;;;;2.85;1.65;;;;;;;;;;5019153;28;20234;-67
2022/05/22 07:21:17;;;;;;;1.52;1.40;;;;;;;;;;5031792;28;20258;-68
2022/05/22 07:23:44;;;;;;;4.35;1.52;;;;;;;;;;5012916;28;20203;-66
2022/05/22 07:26:12;;;;;;;3.17;1.95;;;;;;;;;;5014199;28;20699;-65
2022/05/22 07:28:39;;;;;;;5.25;3.53;;;;;;;;;;5010916;28;20264;-66
2022/05/22 07:31:14;;;;;;;1.40;1.30;;;;;;;;;;5010424;28;20274;-67
2022/05/22 07:33:41;;;;;;;1.83;1.50;;;;;;;;;;4994837;28;20261;-67
2022/05/22 07:36:09;;;;;;;2.05;1.40;;;;;;;;;;5011438;28;20222;-67
2022/05/22 07:38:36;;;;;;;2.38;1.42;;;;;;;;;;5012986;28;20207;-66
2022/05/22 07:41:04;;;;;;;3.33;1.17;;;;;;;;;;5012173;28;20199;-67
2022/05/22 07:43:31;;;;;;;1.50;1.40;;;;;;;;;;5014328;28;20203;-67
2022/05/22 07:45:59;;;;;;;4.00;1.40;;;;;;;;;;5014545;28;20207;-67
2022/05/22 07:48:33;;;;;;;2.25;1.30;;;;;;;;;;5029639;28;20219;-66
2022/05/22 07:51:01;;;;;;;1.38;1.27;;;;;;;;;;5010700;28;20211;-66
2022/05/22 07:53:29;;;;;;;1.60;1.20;;;;;;;;;;5006513;28;20676;-66
2022/05/22 07:55:57;;;;;;;1.30;1.20;;;;;;;;;;5012965;28;20581;-67
2022/05/22 07:58:26;;;;;;;1.38;1.27;;;;;;;;;;4996521;28;20203;-67
2022/05/22 08:00:53;;;;;;;3.20;1.35;;;;;;;;;;5005142;28;20251;-67
2022/05/22 08:03:21;;;;;;;1.40;1.30;;;;;;;;;;5010051;28;20606;-67
2022/05/22 08:05:49;;;;;;;1.85;1.30;;;;;;;;;;5012781;28;20217;-66
2022/05/22 08:08:16;;;;;;;1.33;1.20;;;;;;;;;;5007580;28;20204;-66
2022/05/22 08:10:44;;;;;;;1.58;1.27;;;;;;;;;;5013468;28;20230;-67
2022/05/22 08:13:13;;;;;;;2.00;1.15;;;;;;;;;;5013281;28;20314;-67
2022/05/22 08:15:41;;;;;;;1.23;1.08;;;;;;;;;;5010636;28;20292;-67
2022/05/22 08:18:09;;;;;;;3.72;3.15;;;;;;;;;;5011325;28;20269;-67
2022/05/22 08:20:37;;;;;;;3.47;2.72;;;;;;;;;;5009429;28;20282;-67
2022/05/22 08:23:07;;;;;;;1.48;1.35;;;;;;;;;;5013492;28;20214;-67
2022/05/22 08:25:35;;;;;;;1.55;1.45;;;;;;;;;;5013519;28;20788;-68
2022/05/22 08:28:04;;;;;;;1.10;1.10;;;;;;;;;;5012440;28;20273;-66
2022/05/22 08:30:32;;;;;;;1.80;1.10;;;;;;;;;;5010972;28;20235;-67
2022/05/22 08:33:00;;;;;;;1.40;1.30;;;;;;;;;;5012257;28;20332;-66
2022/05/22 08:35:29;;;;;;;1.20;1.10;;;;;;;;;;5012989;28;20262;-66
2022/05/22 08:37:57;;;;;;;2.92;1.48;;;;;;;;;;5011198;28;20218;-67
2022/05/22 08:40:25;;;;;;;2.67;1.10;;;;;;;;;;5029750;28;20581;-65
2022/05/22 08:43:08;;;;;;;2.17;0.88;;;;;;;;;;5007651;28;20207;-67
2022/05/22 08:45:54;;;;;;;2.38;2.17;;;;;;;;;;5009321;28;20204;-67
2022/05/22 08:48:28;;;;;;;0.70;0.70;;;;;;;;;;5005078;28;20211;-67
2022/05/22 08:50:57;;;;;;;2.30;0.80;;;;;;;;;;5012708;28;20225;-67
2022/05/22 08:53:28;;;;;;;1.42;1.00;;;;;;;;;;5013937;28;20670;-67
2022/05/22 08:58:57;;;;;;;1.67;1.00;;;;;;;;;;5030523;28;20202;-67
2022/05/22 09:01:31;;;;;;;1.63;1.10;;;;;;;;;;5012711;28;20256;-66
2022/05/22 09:04:00;;;;;;;0.90;0.90;;;;;;;;;;5011102;28;20203;-66
2022/05/22 09:06:39;;;;;;;1.15;0.80;;;;;;;;;;5011508;28;20314;-66
2022/05/22 09:09:06;;;;;;;1.65;0.80;;;;;;;;;;5007176;28;20226;-66
2022/05/22 09:11:52;;;;;;;2.05;1.02;;;;;;;;;;5012809;28;20202;-66
2022/05/22 09:14:26;;;;;;;0.80;0.80;;;;;;;;;;5012650;28;20214;-67
2022/05/22 09:17:02;;;;;;;1.45;1.00;;;;;;;;;;5011958;28;20244;-67
2022/05/22 09:19:45;;;;;;;0.90;0.90;;;;;;;;;;5012900;28;20235;-67
2022/05/22 09:22:13;;;;;;;3.60;2.97;;;;;;;;;;5011870;28;20683;-67
2022/05/22 09:25:08;;;;;;;0.80;0.80;;;;;;;;;;5007639;28;20924;-68
2022/05/22 09:27:42;;;;;;;1.17;1.00;;;;;;;;;;4964048;28;20216;-67
2022/05/22 09:30:29;;;;;;;3.00;1.30;;;;;;;;;;4995790;28;20301;-67
2022/05/22 09:33:00;;;;;;;0.90;0.90;;;;;;;;;;5011861;28;20199;-67
2022/05/22 09:35:34;;;;;;;1.60;1.35;;;;;;;;;;5012127;28;20222;-68
2022/05/22 09:38:08;;;;;;;1.15;0.80;;;;;;;;;;5011887;28;20202;-67
2022/05/22 09:40:42;;;;;;;1.73;0.80;;;;;;;;;;5006104;28;20243;-66
2022/05/22 09:43:11;;;;;;;2.53;1.05;;;;;;;;;;5008492;28;20200;-67
2022/05/22 09:45:44;;;;;;;0.85;0.73;;;;;;;;;;5012245;28;20206;-67
2022/05/22 09:48:12;;;;;;;1.40;0.90;;;;;;;;;;5011585;28;20206;-67
2022/05/22 09:50:50;;;;;;;0.75;0.75;;;;;;;;;;5012392;28;20230;-67
2022/05/22 09:53:42;;;;;;;2.13;0.82;;;;;;;;;;5011119;28;20678;-67
2022/05/22 09:56:48;;;;;;;1.35;0.80;;;;;;;;;;5015303;28;20294;-67
2022/05/22 09:59:21;;;;;;;1.20;1.10;;;;;;;;;;5008461;28;20231;-66
2022/05/22 10:01:52;;;;;;;7.15;5.05;;;;;;;;;;5014918;28;20298;-67
2022/05/22 10:04:38;;;;;;;2.25;1.10;;;;;;;;;;5015136;28;20394;-67
2022/05/22 10:07:21;;;;;;;1.60;1.10;;;;;;;;;;5005163;28;20298;-68
2022/05/22 10:10:07;;;;;;;0.90;0.70;;;;;;;;;;5015721;28;20215;-67
2022/05/22 10:12:57;;;;;;;4.22;0.82;;;;;;;;;;5013346;28;20238;-67
2022/05/22 10:15:40;;;;;;;0.68;0.60;;;;;;;;;;4996215;28;20266;-67
2022/05/22 10:18:15;;;;;;;2.28;1.15;;;;;;;;;;5011815;28;20204;-67
2022/05/22 10:20:55;;;;;;;0.70;0.70;;;;;;;;;;5015915;28;20226;-67
2022/05/22 10:23:38;;;;;;;0.82;0.82;;;;;;;;;;5015332;28;20648;-67
2022/05/22 10:26:05;;;;;;;4.40;4.00;;;;;;;;;;5016163;28;20245;-67
2022/05/22 10:28:44;;;;;;;0.95;0.70;;;;;;;;;;5010268;28;20558;-67
2022/05/22 10:31:13;;;;;;;0.93;0.82;;;;;;;;;;5029111;28;20229;-67
2022/05/22 10:33:53;;;;;;;1.17;0.70;;;;;;;;;;5029383;28;20210;-66
2022/05/22 10:36:33;;;;;;;1.25;0.70;;;;;;;;;;5011631;28;20285;-67
2022/05/22 10:39:04;;;;;;;1.55;0.80;;;;;;;;;;5014944;28;20218;-67
2022/05/22 10:44:21;;;;;;;0.90;0.80;;;;;;;;;;5029345;28;20221;-67
2022/05/22 10:46:50;;;;;;;0.73;0.63;;;;;;;;;;5011424;28;20200;-67
2022/05/22 10:49:19;;;;;;;0.63;0.60;;;;;;;;;;5032724;28;20226;-67
2022/05/22 10:52:03;;;;;;;0.60;0.60;;;;;;;;;;5015369;28;20248;-67
2022/05/22 10:54:35;;;;;;;2.15;0.73;;;;;;;;;;5012822;28;20223;-67
2022/05/22 10:57:17;;;;;;;2.65;1.80;;;;;;;;;;5014626;28;20223;-67
2022/05/22 10:59:44;;;;;;;2.72;1.50;;;;;;;;;;5014165;28;20222;-66
2022/05/22 11:02:17;;;;;;;2.10;1.20;;;;;;;;;;5014757;28;20203;-67
2022/05/22 11:04:46;;;;;;;1.10;0.80;;;;;;;;;;5010998;28;20653;-67
2022/05/22 11:07:15;;;;;;;0.93;0.80;;;;;;;;;;5014433;28;20203;-67
2022/05/22 11:09:52;;;;;;;1.65;0.77;;;;;;;;;;5014350;28;20630;-67
2022/05/22 11:12:24;;;;;;;1.63;0.80;;;;;;;;;;5014838;28;20257;-66
2022/05/22 11:14:51;;;;;;;0.77;0.77;;;;;;;;;;5015119;28;20210;-65
2022/05/22 11:17:23;;;;;;;0.95;0.88;;;;;;;;;;5013275;28;20269;-66
2022/05/22 11:19:54;;;;;;;1.13;0.80;;;;;;;;;;5009295;28;20622;-66
2022/05/22 11:22:27;;;;;;;2.03;1.83;;;;;;;;;;4998283;28;20211;-67
2022/05/22 11:24:55;;;;;;;2.58;1.40;;;;;;;;;;5013795;28;20203;-67
2022/05/22 11:27:41;;;;;;;4.05;2.15;;;;;;;;;;5031968;28;20630;-66
2022/05/22 11:30:14;;;;;;;1.02;0.90;;;;;;;;;;5013987;28;20234;-66
2022/05/22 11:33:11;;;;;;;1.33;0.70;;;;;;;;;;5030751;28;20623;-66
2022/05/22 11:35:44;;;;;;;8.10;4.97;;;;;;;;;;4990786;28;20640;-66
2022/05/22 11:38:30;;;;;;;4.43;1.92;;;;;;;;;;5026304;28;20306;-67
2022/05/22 11:41:10;;;;;;;1.08;0.98;;;;;;;;;;5013723;28;20224;-67
2022/05/22 11:43:56;;;;;;;1.42;1.10;;;;;;;;;;5012715;28;20206;-67
2022/05/22 11:46:38;;;;;;;1.45;0.90;;;;;;;;;;5010514;28;20211;-67
2022/05/22 11:49:24;;;;;;;1.25;0.82;;;;;;;;;;5013467;28;20235;-67
2022/05/22 11:52:11;;;;;;;0.63;0.63;;;;;;;;;;5014093;28;20249;-66
2022/05/22 11:54:44;;;;;;;1.30;0.88;;;;;;;;;;5010502;28;20281;-67
2022/05/22 11:57:20;;;;;;;2.15;1.00;;;;;;;;;;5003613;28;20226;-67
2022/05/22 12:00:17;;;;;;;2.13;1.20;;;;;;;;;;5014080;28;20229;-67
2022/05/22 12:02:51;;;;;;;1.13;0.73;;;;;;;;;;4986051;28;20835;-66
2022/05/22 12:05:32;;;;;;;2.85;1.00;;;;;;;;;;5012676;28;20237;-65
2022/05/22 12:08:11;;;;;;;1.52;1.17;;;;;;;;;;5012455;28;20217;-66
2022/05/22 12:10:45;;;;;;;2.03;1.20;;;;;;;;;;5010021;28;20219;-66
2022/05/22 12:13:16;;;;;;;1.27;0.82;;;;;;;;;;4998556;28;20219;-66
2022/05/22 12:15:48;;;;;;;0.70;0.70;;;;;;;;;;5012315;28;20211;-66
2022/05/22 12:18:15;;;;;;;1.25;0.90;;;;;;;;;;5013362;28;20198;-66
2022/05/22 12:20:49;;;;;;;0.90;0.90;;;;;;;;;;5012684;28;20296;-66
2022/05/22 12:23:16;;;;;;;4.65;3.53;;;;;;;;;;5013499;28;20622;-66
2022/05/22 12:25:50;;;;;;;1.98;1.48;;;;;;;;;;5013292;28;20218;-66
2022/05/22 12:28:18;;;;;;;1.73;1.63;;;;;;;;;;5011981;28;20213;-66
2022/05/22 12:30:46;;;;;;;0.90;0.85;;;;;;;;;;5000030;28;20437;-66
2022/05/22 12:33:14;;;;;;;2.42;0.80;;;;;;;;;;5009905;28;20203;-66
2022/05/22 12:35:42;;;;;;;1.65;1.10;;;;;;;;;;5011582;28;20210;-66
2022/05/22 12:38:12;;;;;;;1.10;1.00;;;;;;;;;;5006892;28;20200;-65
2022/05/22 12:40:53;;;;;;;1.27;0.82;;;;;;;;;;5010994;28;20243;-66
2022/05/22 12:43:22;;;;;;;1.70;1.05;;;;;;;;;;5012541;28;20293;-66
2022/05/22 12:45:54;;;;;;;1.95;0.98;;;;;;;;;;5010248;28;20207;-65
2022/05/22 12:48:33;;;;;;;1.42;0.90;;;;;;;;;;5030498;28;20229;-66
2022/05/22 12:51:10;;;;;;;1.05;1.02;;;;;;;;;;5011564;28;20664;-66
2022/05/22 12:53:39;;;;;;;3.08;1.00;;;;;;;;;;5010941;28;20195;-65
2022/05/22 12:56:40;;;;;;;2.30;1.02;;;;;;;;;;5030314;28;20292;-65
2022/05/22 12:59:30;;;;;;;2.28;2.05;;;;;;;;;;4960403;28;20343;-66
2022/05/22 13:02:01;;;;;;;7.00;1.90;;;;;;;;;;5007899;28;20199;-66
2022/05/22 13:04:34;;;;;;;1.30;1.10;;;;;;;;;;4996380;28;20239;-66
2022/05/22 13:07:25;;;;;;;1.20;1.10;;;;;;;;;;4998351;28;20206;-66
2022/05/22 13:09:54;;;;;;;1.80;0.93;;;;;;;;;;5012869;28;20226;-66
2022/05/22 13:12:23;;;;;;;1.42;1.30;;;;;;;;;;5027850;28;20220;-66
2022/05/22 13:14:50;;;;;;;1.25;1.05;;;;;;;;;;5030820;28;20207;-66
2022/05/22 13:17:30;;;;;;;1.83;1.20;;;;;;;;;;5013053;28;20230;-66
2022/05/22 13:20:02;;;;;;;1.20;0.85;;;;;;;;;;5009054;28;20270;-66
2022/05/22 13:22:32;;;;;;;0.90;0.90;;;;;;;;;;5009116;28;20237;-66
2022/05/22 13:25:00;;;;;;;1.25;1.00;;;;;;;;;;5009208;28;20215;-66
2022/05/22 13:27:31;;;;;;;2.25;1.10;;;;;;;;;;5010072;28;20211;-66
2022/05/22 13:30:15;;;;;;;1.00;1.00;;;;;;;;;;5032307;28;20324;-67
2022/05/22 13:33:02;;;;;;;1.05;1.05;;;;;;;;;;5030816;28;20510;-66
2022/05/22 13:35:34;;;;;;;2.47;1.05;;;;;;;;;;5028694;28;20202;-66
2022/05/22 13:38:02;;;;;;;5.22;1.88;;;;;;;;;;5005652;28;20762;-65
2022/05/22 13:40:33;;;;;;;2.00;1.17;;;;;;;;;;5012944;28;20227;-65
2022/05/22 13:43:03;;;;;;;1.65;1.08;;;;;;;;;;5013148;28;20203;-65
2022/05/22 13:45:46;;;;;;;1.00;1.00;;;;;;;;;;5012911;28;20203;-66
2022/05/22 13:48:13;;;;;;;2.00;1.15;;;;;;;;;;5027460;28;20268;-66
2022/05/22 13:53:41;;;;;;;1.75;1.65;;;;;;;;;;5031191;28;20199;-66
2022/05/22 13:56:13;;;;;;;2.17;1.45;;;;;;;;;;5016009;28;20202;-66
2022/05/22 13:58:41;;;;;;;2.00;1.50;;;;;;;;;;5015362;28;20582;-66
2022/05/22 14:01:14;;;;;;;0.80;0.80;;;;;;;;;;5013468;28;20199;-66
2022/05/22 14:03:54;;;;;;;1.60;1.10;;;;;;;;;;5033617;28;20198;-66
2022/05/22 14:06:26;;;;;;;1.35;1.10;;;;;;;;;;5015727;28;20625;-66
2022/05/22 14:08:55;;;;;;;1.77;1.02;;;;;;;;;;5014392;28;20199;-66
2022/05/22 14:11:27;;;;;;;2.97;2.00;;;;;;;;;;5014940;28;20747;-66
2022/05/22 14:14:07;;;;;;;6.75;5.00;;;;;;;;;;5016119;28;20215;-66
2022/05/22 14:16:36;;;;;;;2.13;1.30;;;;;;;;;;5015908;28;20222;-66
2022/05/22 14:19:05;;;;;;;1.10;1.00;;;;;;;;;;5014049;28;20269;-66
2022/05/22 14:21:38;;;;;;;1.27;1.17;;;;;;;;;;4996510;28;20207;-66
2022/05/22 14:27:20;;;;;;;3.53;2.35;;;;;;;;;;5012873;28;20227;-66
2022/05/22 14:29:48;;;;;;;1.17;1.08;;;;;;;;;;4986035;28;20313;-66
2022/05/22 14:32:17;;;;;;;3.38;1.75;;;;;;;;;;4980348;28;20629;-66
2022/05/22 14:34:48;;;;;;;3.72;2.03;;;;;;;;;;5013306;28;20765;-66
2022/05/22 14:37:16;;;;;;;1.60;0.82;;;;;;;;;;5010071;28;20636;-66
2022/05/22 14:40:03;;;;;;;1.10;0.80;;;;;;;;;;5013829;28;20590;-66
2022/05/22 14:42:32;;;;;;;1.15;1.00;;;;;;;;;;5015188;28;20226;-65
2022/05/22 14:45:12;;;;;;;2.70;1.20;;;;;;;;;;5014256;28;20214;-66
2022/05/22 14:48:01;;;;;;;0.85;0.80;;;;;;;;;;5017998;28;20218;-66
2022/05/22 14:50:29;;;;;;;1.95;0.95;;;;;;;;;;5015077;28;20260;-67
2022/05/22 14:53:05;;;;;;;1.70;1.60;;;;;;;;;;5014730;28;20635;-66
2022/05/22 14:55:38;;;;;;;3.13;1.73;;;;;;;;;;5013002;28;20210;-66
2022/05/22 14:58:27;;;;;;;2.28;1.20;;;;;;;;;;5016688;28;20409;-66
2022/05/22 15:01:01;;;;;;;2.28;0.88;;;;;;;;;;5014090;28;20220;-67
2022/05/22 15:03:38;;;;;;;1.90;1.58;;;;;;;;;;4997092;28;20214;-66
2022/05/22 15:06:06;;;;;;;1.08;0.93;;;;;;;;;;4996025;28;20199;-66
2022/05/22 15:08:40;;;;;;;2.25;1.77;;;;;;;;;;5032007;28;20593;-66
2022/05/22 15:11:28;;;;;;;1.25;1.10;;;;;;;;;;5011516;28;20286;-66
2022/05/22 15:13:56;;;;;;;2.53;2.03;;;;;;;;;;5006831;28;20262;-66
2022/05/22 15:16:25;;;;;;;1.95;0.90;;;;;;;;;;5015494;28;20203;-66
2022/05/22 15:22:02;;;;;;;2.38;0.90;;;;;;;;;;5030922;28;20269;-66
2022/05/22 15:27:19;;;;;;;0.80;0.80;;;;;;;;;;5003102;28;20245;-67
2022/05/22 15:29:47;;;;;;;1.60;0.80;;;;;;;;;;5014140;28;20241;-66
2022/05/22 15:32:16;;;;;;;1.42;0.80;;;;;;;;;;5014445;28;20223;-67
2022/05/22 15:34:43;;;;;;;0.90;0.68;;;;;;;;;;5013680;28;20237;-66